Time;durP1;ratioP1;P1;durP2;ratioP2;P2;SDS_P1;SDS_P2;PMS_P1;PMS_P2;Temp;Humidity;BMP_temperature;BMP_pressure;BME280_temperature;BME280_humidity;BME280_pressure;Samples;Min_cycle;Max_cycle;Signal;HPM_P1;HPM_P2
2022/10/08 00:02:03;;;;;;;605.58;469.88;;;13.80;99.90;;;;;;5004285;28;20218;-81
2022/10/08 00:04:30;;;;;;;603.80;462.95;;;13.80;99.90;;;;;;5004652;28;20212;-80
2022/10/08 00:06:56;;;;;;;599.63;460.88;;;13.80;99.90;;;;;;4992482;28;20690;-80
2022/10/08 00:09:23;;;;;;;598.85;461.85;;;13.80;99.90;;;;;;5004360;28;20202;-81
2022/10/08 00:11:51;;;;;;;601.13;456.27;;;13.80;99.90;;;;;;5002871;28;20196;-80
2022/10/08 00:14:18;;;;;;;601.50;462.33;;;13.80;99.90;;;;;;5005995;28;20663;-81
2022/10/08 00:16:44;;;;;;;580.85;468.35;;;13.80;99.90;;;;;;5009305;28;20206;-80
2022/10/08 00:19:14;;;;;;;593.20;464.30;;;13.80;99.90;;;;;;5014722;28;20232;-80
2022/10/08 00:21:43;;;;;;;586.08;451.55;;;13.80;99.90;;;;;;5015837;28;20199;-81
2022/10/08 00:24:13;;;;;;;591.85;458.85;;;13.80;99.90;;;;;;5020558;28;20200;-80
2022/10/08 00:26:40;;;;;;;590.70;464.27;;;13.70;99.90;;;;;;5009632;28;20206;-80
2022/10/08 00:29:09;;;;;;;578.45;445.73;;;13.70;99.90;;;;;;5020028;28;20205;-80
2022/10/08 00:31:39;;;;;;;585.00;463.90;;;13.70;99.90;;;;;;5014477;28;20203;-80
2022/10/08 00:34:09;;;;;;;573.17;471.90;;;13.70;99.90;;;;;;5015873;28;20250;-81
2022/10/08 00:36:38;;;;;;;537.03;433.42;;;13.70;99.90;;;;;;4998537;28;20203;-80
2022/10/08 00:39:07;;;;;;;582.80;449.27;;;13.70;99.90;;;;;;5004440;28;20595;-80
2022/10/08 00:41:37;;;;;;;576.28;441.10;;;13.70;99.90;;;;;;5007929;28;20198;-80
2022/10/08 00:44:42;;;;;;;532.30;448.70;;;13.70;99.90;;;;;;5006855;28;20552;-79
2022/10/08 00:47:18;;;;;;;576.75;428.05;;;13.70;99.90;;;;;;4996362;28;20205;-80
2022/10/08 00:49:45;;;;;;;579.35;443.73;;;13.70;99.90;;;;;;5009716;28;20265;-80
2022/10/08 00:52:12;;;;;;;582.75;453.88;;;13.60;99.90;;;;;;5002959;28;20196;-80
2022/10/08 00:54:39;;;;;;;589.00;444.67;;;13.60;99.90;;;;;;5003574;28;20198;-80
2022/10/08 00:57:07;;;;;;;591.47;460.63;;;13.60;99.90;;;;;;5010720;28;20200;-80
2022/10/08 00:59:35;;;;;;;596.13;446.15;;;13.60;99.90;;;;;;4998996;28;20218;-80
2022/10/08 01:02:01;;;;;;;594.08;452.52;;;13.60;99.90;;;;;;5004555;28;20568;-81
2022/10/08 01:04:30;;;;;;;590.83;442.30;;;13.60;99.90;;;;;;5004565;28;20215;-80
2022/10/08 01:07:05;;;;;;;593.33;451.45;;;13.60;99.90;;;;;;5000978;28;20205;-80
2022/10/08 01:09:37;;;;;;;594.72;442.30;;;13.60;99.90;;;;;;5001598;28;20202;-80
2022/10/08 01:12:10;;;;;;;590.60;443.88;;;13.60;99.90;;;;;;5007084;28;20194;-80
2022/10/08 01:14:46;;;;;;;593.28;443.17;;;13.60;99.90;;;;;;5012500;28;20463;-80
2022/10/08 01:17:19;;;;;;;589.03;436.92;;;13.60;99.90;;;;;;5004794;28;20264;-81
2022/10/08 01:20:33;;;;;;;599.10;449.35;;;13.60;99.90;;;;;;5008454;28;20309;-80
2022/10/08 01:23:18;;;;;;;584.80;421.35;;;13.60;99.90;;;;;;4999820;28;20215;-80
2022/10/08 01:25:55;;;;;;;588.95;429.65;;;13.50;99.90;;;;;;5010830;28;20210;-80
2022/10/08 01:28:30;;;;;;;590.08;450.13;;;13.50;99.90;;;;;;5010169;28;20700;-80
2022/10/08 01:31:02;;;;;;;577.70;424.33;;;13.50;99.90;;;;;;5007673;28;20195;-80
2022/10/08 01:33:33;;;;;;;587.70;445.67;;;13.50;99.90;;;;;;5000573;28;20218;-80
2022/10/08 01:36:03;;;;;;;584.10;434.10;;;13.50;99.90;;;;;;5008251;28;20199;-80
2022/10/08 01:38:32;;;;;;;583.63;440.73;;;13.50;99.90;;;;;;5007202;28;20567;-80
2022/10/08 01:41:05;;;;;;;580.97;438.55;;;13.50;99.90;;;;;;5008676;28;20308;-81
2022/10/08 01:43:37;;;;;;;587.92;442.58;;;13.50;99.90;;;;;;5003728;28;20301;-80
2022/10/08 01:46:10;;;;;;;584.13;440.67;;;13.50;99.90;;;;;;5002496;28;20206;-81
2022/10/08 01:48:41;;;;;;;583.75;436.63;;;13.50;99.90;;;;;;5000074;28;20193;-80
2022/10/08 01:51:14;;;;;;;580.95;432.17;;;13.50;99.90;;;;;;5012548;28;20202;-80
2022/10/08 01:53:45;;;;;;;583.33;434.00;;;13.50;99.90;;;;;;5002927;28;20223;-80
2022/10/08 01:56:18;;;;;;;580.05;433.50;;;13.50;99.90;;;;;;5009970;28;20207;-81
2022/10/08 01:58:52;;;;;;;580.80;441.88;;;13.50;99.90;;;;;;5005982;28;20495;-81
2022/10/08 02:01:23;;;;;;;572.42;434.25;;;13.50;99.90;;;;;;5000932;28;20211;-80
2022/10/08 02:06:41;;;;;;;573.00;424.77;;;13.40;99.90;;;;;;5008077;28;20206;-81
2022/10/08 02:09:08;;;;;;;572.78;428.30;;;13.40;99.90;;;;;;5011790;28;20210;-80
2022/10/08 02:11:34;;;;;;;580.63;438.00;;;13.40;99.90;;;;;;5005658;28;20261;-81
2022/10/08 02:14:04;;;;;;;554.92;424.30;;;13.40;99.90;;;;;;5013896;28;20199;-81
2022/10/08 02:16:34;;;;;;;520.95;426.50;;;13.40;99.90;;;;;;5004548;28;20200;-80
2022/10/08 02:19:06;;;;;;;572.97;433.05;;;13.40;99.90;;;;;;4996021;28;20575;-80
2022/10/08 02:21:35;;;;;;;578.70;451.30;;;13.40;99.90;;;;;;4997866;28;20220;-80
2022/10/08 02:24:10;;;;;;;570.00;432.98;;;13.40;99.90;;;;;;5011408;28;20198;-81
2022/10/08 02:26:40;;;;;;;561.22;434.05;;;13.40;99.90;;;;;;5008347;28;20214;-80
2022/10/08 02:29:14;;;;;;;553.33;423.63;;;13.40;99.90;;;;;;5006824;28;20747;-80
2022/10/08 02:31:46;;;;;;;578.13;436.98;;;13.40;99.90;;;;;;5011124;28;20205;-80
2022/10/08 02:34:19;;;;;;;574.67;425.45;;;13.40;99.90;;;;;;5014680;28;20209;-80
2022/10/08 02:36:51;;;;;;;587.15;439.15;;;13.40;99.90;;;;;;5012592;28;20227;-80
2022/10/08 02:39:20;;;;;;;578.85;441.08;;;13.40;99.90;;;;;;5014894;28;20197;-80
2022/10/08 02:41:52;;;;;;;586.30;434.70;;;13.40;99.90;;;;;;5002461;28;20225;-81
2022/10/08 02:44:26;;;;;;;586.63;435.70;;;13.40;99.90;;;;;;5018321;28;20540;-80
2022/10/08 02:46:57;;;;;;;583.20;436.60;;;13.40;99.90;;;;;;5004378;28;20196;-80
2022/10/08 02:49:28;;;;;;;587.00;443.33;;;13.40;99.90;;;;;;5014765;28;20668;-80
2022/10/08 02:52:00;;;;;;;586.30;438.90;;;13.40;99.90;;;;;;5011530;28;20198;-80
2022/10/08 02:54:29;;;;;;;584.67;427.20;;;13.40;99.90;;;;;;5011085;28;20290;-80
2022/10/08 02:57:01;;;;;;;580.33;423.90;;;13.40;99.90;;;;;;4999865;28;20205;-80
2022/10/08 02:59:31;;;;;;;587.13;432.63;;;13.40;99.90;;;;;;5007129;28;20202;-80
2022/10/08 03:01:59;;;;;;;584.67;444.55;;;13.40;99.90;;;;;;5003732;28;20549;-80
2022/10/08 03:04:30;;;;;;;587.92;444.02;;;13.40;99.90;;;;;;5008360;28;20205;-81
2022/10/08 03:06:58;;;;;;;579.70;441.95;;;13.40;99.90;;;;;;5002091;28;20221;-80
2022/10/08 03:09:29;;;;;;;585.25;437.52;;;13.40;99.90;;;;;;5006841;28;20200;-80
2022/10/08 03:11:56;;;;;;;581.88;432.75;;;13.40;99.90;;;;;;4995620;28;20191;-80
2022/10/08 03:14:24;;;;;;;586.90;432.00;;;13.40;99.90;;;;;;5005134;28;20677;-80
2022/10/08 03:16:53;;;;;;;574.47;411.95;;;13.40;99.90;;;;;;5005425;28;20619;-80
2022/10/08 03:19:21;;;;;;;581.38;437.85;;;13.40;99.90;;;;;;5009020;28;20199;-81
2022/10/08 03:21:52;;;;;;;570.88;422.13;;;13.40;99.90;;;;;;5014373;28;20242;-81
2022/10/08 03:24:19;;;;;;;578.38;430.83;;;13.40;99.90;;;;;;5009447;28;20196;-81
2022/10/08 03:26:45;;;;;;;595.75;434.50;;;13.40;99.90;;;;;;5010126;28;20197;-81
2022/10/08 03:29:12;;;;;;;597.45;430.73;;;13.40;99.90;;;;;;5018042;28;20563;-81
2022/10/08 03:31:39;;;;;;;597.40;428.20;;;13.40;99.90;;;;;;5002515;28;20197;-81
2022/10/08 03:34:07;;;;;;;596.08;441.00;;;13.40;99.90;;;;;;4998731;28;20204;-81
2022/10/08 03:36:34;;;;;;;600.17;436.27;;;13.40;99.90;;;;;;5004993;28;20201;-81
2022/10/08 03:39:01;;;;;;;597.22;435.30;;;13.40;99.90;;;;;;5001411;28;20651;-81
2022/10/08 03:41:30;;;;;;;591.55;426.17;;;13.40;99.90;;;;;;5005981;28;20219;-80
2022/10/08 03:43:57;;;;;;;596.03;434.70;;;13.40;99.90;;;;;;5005805;28;20296;-80
2022/10/08 03:46:25;;;;;;;597.60;438.17;;;13.40;99.90;;;;;;5017125;28;20282;-80
2022/10/08 03:48:51;;;;;;;594.65;436.95;;;13.40;99.90;;;;;;5003163;28;20203;-80
2022/10/08 03:51:22;;;;;;;597.53;437.88;;;13.40;99.90;;;;;;5019701;28;20212;-81
2022/10/08 03:53:49;;;;;;;594.85;436.38;;;13.40;99.90;;;;;;5017513;28;20201;-80
2022/10/08 03:56:18;;;;;;;589.97;429.00;;;13.40;99.90;;;;;;5014077;28;20206;-80
2022/10/08 03:58:45;;;;;;;588.42;427.58;;;13.40;99.90;;;;;;5005015;28;20656;-80
2022/10/08 04:01:14;;;;;;;562.95;428.55;;;13.40;99.90;;;;;;5026516;28;20213;-80
2022/10/08 04:03:41;;;;;;;595.75;428.17;;;13.40;99.90;;;;;;5020606;28;20212;-81
2022/10/08 04:06:08;;;;;;;594.42;431.90;;;13.40;99.90;;;;;;5014106;28;20202;-80
2022/10/08 04:08:36;;;;;;;596.10;434.23;;;13.40;99.90;;;;;;4998810;28;20214;-80
2022/10/08 04:11:05;;;;;;;593.13;428.30;;;13.40;99.90;;;;;;5001851;28;20563;-80
2022/10/08 04:13:32;;;;;;;592.70;423.80;;;13.40;99.90;;;;;;5002539;28;20200;-79
2022/10/08 04:16:02;;;;;;;599.35;428.00;;;13.40;99.90;;;;;;4999521;28;20208;-79
2022/10/08 04:18:29;;;;;;;592.80;417.70;;;13.40;99.90;;;;;;4999748;28;20229;-80
2022/10/08 04:21:00;;;;;;;594.20;428.98;;;13.40;99.90;;;;;;4995982;28;20229;-79
2022/10/08 04:23:28;;;;;;;592.70;426.67;;;13.40;99.90;;;;;;4998729;28;20209;-80
2022/10/08 04:25:56;;;;;;;586.40;404.30;;;13.40;99.90;;;;;;4994908;28;20194;-79
2022/10/08 04:28:23;;;;;;;596.55;435.92;;;13.40;99.90;;;;;;5004414;28;20202;-80
2022/10/08 04:30:58;;;;;;;592.38;431.70;;;13.40;99.90;;;;;;5000388;28;20196;-79
2022/10/08 04:33:25;;;;;;;595.20;434.63;;;13.40;99.90;;;;;;4999178;28;20209;-78
2022/10/08 04:35:52;;;;;;;594.05;431.42;;;13.40;99.90;;;;;;5005303;28;20229;-79
2022/10/08 04:38:19;;;;;;;590.55;433.33;;;13.40;99.90;;;;;;4999926;28;20207;-79
2022/10/08 04:40:45;;;;;;;584.42;432.75;;;13.40;99.90;;;;;;5000782;28;20683;-79
2022/10/08 04:43:14;;;;;;;589.83;437.33;;;13.40;99.90;;;;;;5005150;28;20199;-78
2022/10/08 04:45:45;;;;;;;585.90;428.58;;;13.40;99.90;;;;;;5002829;28;20213;-80
2022/10/08 04:48:12;;;;;;;585.60;427.70;;;13.40;99.90;;;;;;5001334;28;20203;-79
2022/10/08 04:50:39;;;;;;;586.53;429.60;;;13.40;99.90;;;;;;5005694;28;20199;-80
2022/10/08 04:53:06;;;;;;;590.40;434.58;;;13.40;99.90;;;;;;5004222;28;20571;-79
2022/10/08 04:55:33;;;;;;;587.38;427.88;;;13.40;99.90;;;;;;5002019;28;20496;-80
2022/10/08 04:58:00;;;;;;;584.47;432.65;;;13.40;99.90;;;;;;5000337;28;20201;-81
2022/10/08 05:00:28;;;;;;;587.63;430.23;;;13.40;99.90;;;;;;4999827;28;20232;-81
2022/10/08 05:02:55;;;;;;;581.20;427.42;;;13.40;99.90;;;;;;5004047;28;20302;-80
2022/10/08 05:05:22;;;;;;;583.78;428.48;;;13.40;99.90;;;;;;5009680;28;20203;-81
2022/10/08 05:07:49;;;;;;;586.72;446.50;;;13.40;99.90;;;;;;4996047;28;20703;-81
2022/10/08 05:10:16;;;;;;;586.67;438.05;;;13.40;99.90;;;;;;5006997;28;20202;-81
2022/10/08 05:12:43;;;;;;;578.55;440.92;;;13.40;99.90;;;;;;4999580;28;20218;-80
2022/10/08 05:15:10;;;;;;;576.28;433.05;;;13.40;99.90;;;;;;4997928;28;20190;-80
2022/10/08 05:17:38;;;;;;;573.40;440.73;;;13.40;99.90;;;;;;5003244;28;20227;-80
2022/10/08 05:20:06;;;;;;;577.90;422.73;;;13.40;99.90;;;;;;5007158;28;20202;-81
2022/10/08 05:22:32;;;;;;;567.70;434.35;;;13.40;99.90;;;;;;5006688;28;20579;-81
2022/10/08 05:24:59;;;;;;;522.13;426.63;;;13.40;99.90;;;;;;5002635;28;21857;-80
2022/10/08 05:27:26;;;;;;;559.45;432.77;;;13.40;99.90;;;;;;4998178;28;20204;-81
2022/10/08 05:29:52;;;;;;;576.17;435.58;;;13.40;99.90;;;;;;5002989;28;20661;-79
2022/10/08 05:32:19;;;;;;;531.38;426.40;;;13.40;99.90;;;;;;5008674;28;20200;-79
2022/10/08 05:34:47;;;;;;;529.58;434.50;;;13.40;99.90;;;;;;5003355;28;20210;-79
2022/10/08 05:37:14;;;;;;;569.80;424.80;;;13.40;99.90;;;;;;4999149;28;20196;-80
2022/10/08 05:39:41;;;;;;;585.63;437.42;;;13.40;99.90;;;;;;5003775;28;20203;-79
2022/10/08 05:42:07;;;;;;;576.58;425.77;;;13.40;99.90;;;;;;5002911;28;20695;-80
2022/10/08 05:44:34;;;;;;;517.75;422.33;;;13.40;99.90;;;;;;5007206;28;20197;-80
2022/10/08 05:47:01;;;;;;;575.97;420.70;;;13.40;99.90;;;;;;5005437;28;20271;-79
2022/10/08 05:49:28;;;;;;;575.65;432.98;;;13.40;99.90;;;;;;5000112;28;20213;-80
2022/10/08 05:51:56;;;;;;;575.67;434.52;;;13.40;99.90;;;;;;4997459;28;20201;-80
2022/10/08 05:54:23;;;;;;;575.17;431.90;;;13.40;99.90;;;;;;5006479;28;20665;-80
2022/10/08 05:56:49;;;;;;;582.83;435.80;;;13.40;99.90;;;;;;5001834;28;20651;-81
2022/10/08 05:59:17;;;;;;;579.88;432.67;;;13.40;99.90;;;;;;5003579;28;20202;-80
2022/10/08 06:01:44;;;;;;;584.63;440.13;;;13.40;99.90;;;;;;5002252;28;20240;-80
2022/10/08 06:04:12;;;;;;;574.78;426.23;;;13.40;99.90;;;;;;5000376;28;20657;-81
2022/10/08 06:06:40;;;;;;;539.72;427.70;;;13.40;99.90;;;;;;4998925;28;20207;-80
2022/10/08 06:09:11;;;;;;;569.40;429.38;;;13.40;99.90;;;;;;5002285;28;20693;-80
2022/10/08 06:11:38;;;;;;;523.80;426.70;;;13.40;99.90;;;;;;5008110;28;20865;-80
2022/10/08 06:14:06;;;;;;;548.17;438.90;;;13.40;99.90;;;;;;4998898;28;20203;-80
2022/10/08 06:16:34;;;;;;;574.25;428.75;;;13.40;99.90;;;;;;5010272;28;20195;-80
2022/10/08 06:19:02;;;;;;;583.95;428.08;;;13.40;99.90;;;;;;5003823;28;20204;-80
2022/10/08 06:21:29;;;;;;;578.90;430.30;;;13.40;99.90;;;;;;5004905;28;20244;-80
2022/10/08 06:23:57;;;;;;;577.65;430.55;;;13.40;99.90;;;;;;5003764;28;20769;-81
2022/10/08 06:26:28;;;;;;;580.17;423.05;;;13.40;99.90;;;;;;5004786;28;20218;-81
2022/10/08 06:28:55;;;;;;;557.28;439.80;;;13.40;99.90;;;;;;5006577;28;20290;-80
2022/10/08 06:31:22;;;;;;;577.65;429.52;;;13.40;99.90;;;;;;5001821;28;20199;-81
2022/10/08 06:33:49;;;;;;;578.22;432.20;;;13.40;99.90;;;;;;5004800;28;20199;-81
2022/10/08 06:36:19;;;;;;;579.85;433.85;;;13.40;99.90;;;;;;5003252;28;20567;-81
2022/10/08 06:38:49;;;;;;;576.38;429.60;;;13.40;99.90;;;;;;5007801;28;20202;-80
2022/10/08 06:41:17;;;;;;;574.40;429.77;;;13.40;99.90;;;;;;4998721;28;20744;-82
2022/10/08 06:43:45;;;;;;;582.35;433.38;;;13.40;99.90;;;;;;5010443;28;20611;-81
2022/10/08 06:46:12;;;;;;;584.50;434.75;;;13.40;99.90;;;;;;5008716;28;20202;-82
2022/10/08 06:48:39;;;;;;;531.40;431.42;;;13.40;99.90;;;;;;5009625;28;20194;-81
2022/10/08 06:51:11;;;;;;;491.23;441.27;;;13.40;99.90;;;;;;5010415;28;20198;-81
2022/10/08 06:53:38;;;;;;;472.05;423.55;;;13.40;99.90;;;;;;4998020;28;20297;-81
2022/10/08 06:56:09;;;;;;;481.38;433.45;;;13.40;99.90;;;;;;4996306;28;20684;-82
2022/10/08 06:58:37;;;;;;;478.83;431.17;;;13.40;99.90;;;;;;5004900;28;20198;-82
2022/10/08 07:01:07;;;;;;;481.48;435.38;;;13.40;99.90;;;;;;5012118;28;20208;-81
2022/10/08 07:03:34;;;;;;;478.33;433.10;;;13.40;99.90;;;;;;5009373;28;20661;-81
2022/10/08 07:06:01;;;;;;;470.30;426.10;;;13.40;99.90;;;;;;5014108;28;20198;-81
2022/10/08 07:08:28;;;;;;;480.88;435.05;;;13.40;99.90;;;;;;5001044;28;20285;-81
2022/10/08 07:10:55;;;;;;;467.58;423.33;;;13.40;99.90;;;;;;4997379;28;20203;-82
2022/10/08 07:13:22;;;;;;;465.00;420.80;;;13.40;99.90;;;;;;5000941;28;20208;-82
2022/10/08 07:15:49;;;;;;;476.15;431.50;;;13.40;99.90;;;;;;5006646;28;22091;-82
2022/10/08 07:18:17;;;;;;;483.42;437.55;;;13.40;99.90;;;;;;4999222;28;20223;-83
2022/10/08 07:20:44;;;;;;;476.77;430.73;;;13.40;99.90;;;;;;4997730;28;20200;-82
2022/10/08 07:23:10;;;;;;;472.90;427.80;;;13.40;99.90;;;;;;5002409;28;20223;-82
2022/10/08 07:25:37;;;;;;;480.55;435.35;;;13.40;99.90;;;;;;5004621;28;20639;-81
2022/10/08 07:28:04;;;;;;;474.75;429.42;;;13.40;99.90;;;;;;5005770;28;20211;-81
2022/10/08 07:30:31;;;;;;;480.38;434.77;;;13.50;99.90;;;;;;5008051;28;20203;-86
2022/10/08 07:32:59;;;;;;;480.10;434.30;;;13.50;99.90;;;;;;5007604;28;20290;-88
2022/10/08 07:35:30;;;;;;;467.48;422.10;;;13.50;99.90;;;;;;5001868;28;20295;-86
2022/10/08 07:37:57;;;;;;;476.35;430.75;;;13.50;99.90;;;;;;5003037;28;20230;-92
2022/10/08 07:40:23;;;;;;;479.58;435.02;;;13.50;99.90;;;;;;5008643;28;21599;-91
2022/10/08 07:42:51;;;;;;;470.58;426.92;;;13.50;99.90;;;;;;4995026;28;20221;-91
2022/10/08 07:45:17;;;;;;;476.83;431.88;;;13.50;99.90;;;;;;5001156;28;20627;-92
2022/10/08 07:47:44;;;;;;;471.92;428.17;;;13.50;99.90;;;;;;5008111;28;20199;-81
2022/10/08 07:50:11;;;;;;;479.25;434.00;;;13.50;99.90;;;;;;4999727;28;20203;-81
2022/10/08 07:52:39;;;;;;;467.10;424.23;;;13.50;99.90;;;;;;5009938;28;20214;-85
2022/10/08 07:55:07;;;;;;;469.35;425.90;;;13.50;99.90;;;;;;5010793;28;20666;-84
2022/10/08 07:57:33;;;;;;;488.08;443.27;;;13.50;99.90;;;;;;5022352;28;20199;-86
2022/10/08 08:00:00;;;;;;;480.48;434.67;;;13.50;99.90;;;;;;5003946;28;21412;-84
2022/10/08 08:02:27;;;;;;;480.17;434.50;;;13.50;99.90;;;;;;5007707;28;20216;-84
2022/10/08 08:04:53;;;;;;;469.10;426.23;;;13.50;99.90;;;;;;5005085;28;20843;-83
2022/10/08 08:07:21;;;;;;;501.95;457.30;;;13.60;99.90;;;;;;5009165;28;20211;-84
2022/10/08 08:09:50;;;;;;;474.13;429.08;;;13.60;99.90;;;;;;5005645;28;20199;-84
2022/10/08 08:12:16;;;;;;;487.63;441.38;;;13.60;99.90;;;;;;4997738;28;20907;-82
2022/10/08 08:14:43;;;;;;;482.33;437.27;;;13.60;99.90;;;;;;5007269;28;20198;-85
2022/10/08 08:17:10;;;;;;;488.73;442.73;;;13.60;99.90;;;;;;5008985;28;20553;-84
2022/10/08 08:19:39;;;;;;;492.58;446.98;;;13.60;99.90;;;;;;5005897;28;20207;-83
2022/10/08 08:22:06;;;;;;;498.92;453.42;;;13.60;99.90;;;;;;4996271;28;20210;-85
2022/10/08 08:24:32;;;;;;;480.25;434.67;;;13.70;99.90;;;;;;5010866;28;20190;-86
2022/10/08 08:27:01;;;;;;;489.42;443.88;;;13.70;99.90;;;;;;5006262;28;20211;-85
2022/10/08 08:29:27;;;;;;;500.98;454.42;;;13.70;99.90;;;;;;5019577;28;20216;-86
2022/10/08 08:31:54;;;;;;;492.08;446.05;;;13.70;99.90;;;;;;5013109;28;20199;-85
2022/10/08 08:34:23;;;;;;;495.95;449.75;;;13.70;99.90;;;;;;5016197;28;20199;-85
2022/10/08 08:36:52;;;;;;;499.35;453.48;;;13.70;99.90;;;;;;5010484;28;20204;-83
2022/10/08 08:39:20;;;;;;;497.95;451.42;;;13.70;99.90;;;;;;5017305;28;20201;-86
2022/10/08 08:42:23;;;;;;;487.73;441.85;;;13.70;99.90;;;;;;5022464;28;20615;-84
2022/10/08 08:44:57;;;;;;;495.90;449.10;;;13.70;99.90;;;;;;5013168;28;20692;-84
2022/10/08 08:47:28;;;;;;;483.92;438.25;;;13.80;99.90;;;;;;5006384;28;20667;-87
2022/10/08 08:49:56;;;;;;;490.05;443.35;;;13.90;99.90;;;;;;5012801;28;20204;-86
2022/10/08 08:52:26;;;;;;;541.45;492.55;;;13.90;99.90;;;;;;5003879;28;20205;-84
2022/10/08 08:54:53;;;;;;;520.85;471.95;;;13.90;99.90;;;;;;5014838;28;20456;-85
2022/10/08 08:57:35;;;;;;;524.58;476.73;;;14.00;99.90;;;;;;5009180;28;20249;-86
2022/10/08 09:00:06;;;;;;;513.97;467.40;;;14.00;99.90;;;;;;5010271;28;20203;-85
2022/10/08 09:02:37;;;;;;;521.65;473.60;;;14.00;99.90;;;;;;5016409;28;20738;-86
2022/10/08 09:05:07;;;;;;;524.42;476.45;;;14.10;99.90;;;;;;5007368;28;20211;-85
2022/10/08 09:07:42;;;;;;;523.45;475.52;;;14.10;99.90;;;;;;5007973;28;20200;-86
2022/10/08 09:10:14;;;;;;;538.97;488.83;;;14.10;99.90;;;;;;5001926;28;20199;-85
2022/10/08 09:12:44;;;;;;;529.83;480.77;;;14.10;99.90;;;;;;5001569;28;20386;-85
2022/10/08 09:15:17;;;;;;;534.45;486.65;;;14.20;99.90;;;;;;5007045;28;20666;-86
2022/10/08 09:17:45;;;;;;;540.55;491.27;;;14.20;99.90;;;;;;5015511;28;20219;-84
2022/10/08 09:20:15;;;;;;;533.30;483.75;;;14.20;99.90;;;;;;5017185;28;20207;-85
2022/10/08 09:22:42;;;;;;;544.08;494.77;;;14.20;99.90;;;;;;5003621;28;20227;-85
2022/10/08 09:25:14;;;;;;;554.67;504.83;;;14.30;99.90;;;;;;5012010;28;20239;-85
2022/10/08 09:27:47;;;;;;;533.67;484.90;;;14.30;99.90;;;;;;5001865;28;20197;-85
2022/10/08 09:30:34;;;;;;;542.83;493.33;;;14.20;99.90;;;;;;5004111;28;20201;-85
2022/10/08 09:33:03;;;;;;;528.38;479.77;;;14.30;99.90;;;;;;5003878;28;20766;-85
2022/10/08 09:35:33;;;;;;;536.55;487.98;;;14.20;99.90;;;;;;5002952;28;20686;-88
2022/10/08 09:38:00;;;;;;;525.25;476.95;;;14.30;99.90;;;;;;5007306;28;20284;-84
2022/10/08 09:40:28;;;;;;;527.65;478.75;;;14.40;99.90;;;;;;5004247;28;20208;-86
2022/10/08 09:43:14;;;;;;;542.97;493.15;;;14.40;99.90;;;;;;5001705;28;20244;-86
2022/10/08 09:45:43;;;;;;;544.50;494.60;;;14.50;99.90;;;;;;5000462;28;20189;-86
2022/10/08 09:48:19;;;;;;;557.60;506.95;;;14.60;99.90;;;;;;5003576;28;20533;-85
2022/10/08 09:50:56;;;;;;;560.50;509.73;;;14.60;99.90;;;;;;5012213;28;20203;-85
2022/10/08 09:53:27;;;;;;;547.88;498.40;;;14.70;99.90;;;;;;5005876;28;20192;-86
2022/10/08 09:55:57;;;;;;;554.83;504.13;;;14.70;99.90;;;;;;5006551;28;20205;-83
2022/10/08 09:58:25;;;;;;;567.95;517.17;;;14.80;99.90;;;;;;5003507;28;20192;-86
2022/10/08 10:00:58;;;;;;;567.13;515.30;;;14.80;99.90;;;;;;5004313;28;20200;-85
2022/10/08 10:03:26;;;;;;;563.75;512.70;;;14.80;99.90;;;;;;5004286;28;20213;-86
2022/10/08 10:05:55;;;;;;;576.65;525.10;;;14.80;99.90;;;;;;5015686;28;20199;-86
2022/10/08 10:08:42;;;;;;;583.22;530.83;;;14.80;99.90;;;;;;5007121;28;20695;-86
2022/10/08 10:11:10;;;;;;;553.80;502.50;;;14.90;99.90;;;;;;4996008;28;20288;-86
2022/10/08 10:13:41;;;;;;;575.47;523.90;;;14.80;99.90;;;;;;5004850;28;20207;-84
2022/10/08 10:16:14;;;;;;;567.00;515.33;;;14.80;99.90;;;;;;5000032;28;20193;-84
2022/10/08 10:18:51;;;;;;;569.25;517.08;;;14.80;99.90;;;;;;5000714;28;20584;-85
2022/10/08 10:21:23;;;;;;;558.33;506.63;;;14.70;99.90;;;;;;5005887;28;20207;-87
2022/10/08 10:24:03;;;;;;;563.83;512.08;;;14.70;99.90;;;;;;4999301;28;20236;-86
2022/10/08 10:26:33;;;;;;;576.00;523.30;;;14.70;99.90;;;;;;5003849;28;20204;-84
2022/10/08 10:29:06;;;;;;;570.67;518.20;;;14.70;99.90;;;;;;5013292;28;20207;-84
2022/10/08 10:31:38;;;;;;;559.13;507.33;;;14.70;99.90;;;;;;5010561;28;20204;-87
2022/10/08 10:34:10;;;;;;;568.80;517.65;;;14.70;99.90;;;;;;5008125;28;20228;-84
2022/10/08 10:36:42;;;;;;;558.67;507.52;;;14.70;99.90;;;;;;5002757;28;20672;-86
2022/10/08 10:39:17;;;;;;;562.53;510.58;;;14.60;99.90;;;;;;5007898;28;20557;-88
2022/10/08 10:41:50;;;;;;;555.83;504.33;;;14.60;99.90;;;;;;5006251;28;20223;-85
2022/10/08 10:44:23;;;;;;;572.00;520.17;;;14.60;99.90;;;;;;5007039;28;20248;-85
2022/10/08 10:46:53;;;;;;;567.85;516.47;;;14.60;99.90;;;;;;5011792;28;20623;-84
2022/10/08 10:49:23;;;;;;;554.88;503.73;;;14.60;99.90;;;;;;5003893;28;20201;-86
2022/10/08 10:52:00;;;;;;;562.90;511.80;;;14.60;99.90;;;;;;5010381;28;20193;-88
2022/10/08 10:54:48;;;;;;;554.45;503.30;;;14.60;99.90;;;;;;5019477;28;20577;-84
2022/10/08 10:57:21;;;;;;;536.00;486.23;;;14.60;99.90;;;;;;5007394;28;20199;-85
2022/10/08 11:00:01;;;;;;;543.42;492.20;;;14.60;99.90;;;;;;5011561;28;20204;-86
2022/10/08 11:02:34;;;;;;;553.08;501.80;;;14.60;99.90;;;;;;5005506;28;20936;-81
2022/10/08 11:05:09;;;;;;;548.63;497.40;;;14.60;99.90;;;;;;5000377;28;20207;-83
2022/10/08 11:07:57;;;;;;;544.50;494.50;;;14.60;99.90;;;;;;5003681;28;20222;-83
2022/10/08 11:10:41;;;;;;;559.20;509.02;;;14.50;99.90;;;;;;4999776;28;20207;-85
2022/10/08 11:13:21;;;;;;;539.30;489.70;;;14.50;99.90;;;;;;5011716;28;20212;-84
2022/10/08 11:15:56;;;;;;;537.97;487.33;;;14.50;99.90;;;;;;5015814;28;20682;-86
2022/10/08 11:18:33;;;;;;;559.55;508.65;;;14.50;99.90;;;;;;5010827;28;20246;-83
2022/10/08 11:21:12;;;;;;;545.35;494.52;;;14.60;99.90;;;;;;5002546;28;20206;-85
2022/10/08 11:23:57;;;;;;;538.42;487.63;;;14.60;99.90;;;;;;5013120;28;20218;-84
2022/10/08 11:26:33;;;;;;;553.72;502.13;;;14.60;99.90;;;;;;5005915;28;20591;-84
2022/10/08 11:29:08;;;;;;;569.50;517.63;;;14.70;99.90;;;;;;5014106;28;20199;-83
2022/10/08 11:31:41;;;;;;;569.20;517.00;;;14.70;99.90;;;;;;5012577;28;20674;-84
2022/10/08 11:34:20;;;;;;;552.35;500.70;;;14.70;99.90;;;;;;5005549;28;20431;-84
2022/10/08 11:36:56;;;;;;;542.20;491.63;;;14.70;99.90;;;;;;4997713;28;20200;-84
2022/10/08 11:39:30;;;;;;;560.20;508.98;;;14.70;99.90;;;;;;5011143;28;20659;-84
2022/10/08 11:42:06;;;;;;;553.72;501.98;;;14.70;99.90;;;;;;5015924;28;20380;-83
2022/10/08 11:44:33;;;;;;;559.47;507.27;;;14.70;99.90;;;;;;5010051;28;20218;-81
2022/10/08 11:47:33;;;;;;;550.90;499.30;;;14.70;99.90;;;;;;5017082;28;20203;-81
2022/10/08 11:50:04;;;;;;;551.03;499.38;;;14.90;99.90;;;;;;5017990;28;20286;-84
2022/10/08 11:52:32;;;;;;;552.22;500.60;;;14.90;99.90;;;;;;5017331;28;20301;-80
2022/10/08 11:55:00;;;;;;;566.67;514.80;;;14.90;99.90;;;;;;5016987;28;20204;-84
2022/10/08 11:57:33;;;;;;;575.90;524.30;;;15.00;99.90;;;;;;5019931;28;20211;-80
2022/10/08 12:00:02;;;;;;;584.60;531.75;;;15.00;99.90;;;;;;5019621;28;20291;-80
2022/10/08 12:02:31;;;;;;;579.80;528.05;;;15.00;99.90;;;;;;5024183;28;20212;-84
2022/10/08 12:05:17;;;;;;;584.85;532.42;;;15.00;99.90;;;;;;5024495;28;20221;-84
2022/10/08 12:07:51;;;;;;;561.78;510.17;;;15.00;99.90;;;;;;5018380;28;20246;-76
2022/10/08 12:10:31;;;;;;;577.47;524.95;;;15.00;99.90;;;;;;5019054;28;20200;-79
2022/10/08 12:13:16;;;;;;;560.88;508.77;;;15.00;99.90;;;;;;5008483;28;20293;-76
2022/10/08 12:15:54;;;;;;;567.80;516.10;;;15.00;99.90;;;;;;5004797;28;20576;-76
2022/10/08 12:18:52;;;;;;;566.03;514.28;;;15.00;99.90;;;;;;5009370;28;20223;-74
2022/10/08 12:21:50;;;;;;;559.22;507.13;;;15.00;99.90;;;;;;5005919;28;20200;-76
2022/10/08 12:24:57;;;;;;;561.75;511.33;;;15.00;99.90;;;;;;4995021;28;20212;-75
2022/10/08 12:27:28;;;;;;;549.50;498.38;;;14.90;99.90;;;;;;5011078;28;20259;-75
2022/10/08 12:29:57;;;;;;;559.58;508.45;;;14.90;99.90;;;;;;5017872;28;20563;-74